createdAt,value
2023-03-26T00:01:38.984Z,24.22
2023-03-26T00:04:07.223Z,24.22
2023-03-26T00:06:39.295Z,24.21
2023-03-26T00:09:08.094Z,24.21
2023-03-26T00:11:35.158Z,24.20
2023-03-26T00:14:02.744Z,24.21
2023-03-26T00:16:32.042Z,24.21
2023-03-26T00:19:00.097Z,24.20
2023-03-26T00:21:28.932Z,24.19
2023-03-26T00:23:59.848Z,24.19
2023-03-26T00:26:27.002Z,24.21
2023-03-26T00:28:54.592Z,24.20
2023-03-26T00:31:22.170Z,24.21
2023-03-26T00:33:54.297Z,24.20
2023-03-26T00:36:23.131Z,24.20
2023-03-26T00:38:49.984Z,24.18
2023-03-26T00:41:23.146Z,24.18
2023-03-26T00:43:52.534Z,24.19
2023-03-26T00:46:19.614Z,24.20
2023-03-26T00:48:47.058Z,24.18
2023-03-26T00:51:16.037Z,24.18
2023-03-26T00:53:44.048Z,24.16
2023-03-26T00:56:11.221Z,24.14
2023-03-26T00:58:39.458Z,24.15
2023-03-26T01:01:09.002Z,24.15
2023-03-26T01:03:42.789Z,24.16
2023-03-26T01:06:17.429Z,24.13
2023-03-26T01:08:46.663Z,24.12
2023-03-26T01:11:17.181Z,24.12
2023-03-26T01:13:49.552Z,24.12
2023-03-26T01:16:22.684Z,24.13
2023-03-26T01:18:50.034Z,24.11
2023-03-26T01:21:22.799Z,24.12
2023-03-26T01:23:57.796Z,24.13
2023-03-26T01:26:52.752Z,24.13
2023-03-26T01:29:26.681Z,24.11
2023-03-26T01:32:03.387Z,24.10
2023-03-26T01:34:39.843Z,24.10
2023-03-26T01:37:15.353Z,24.10
2023-03-26T01:39:53.099Z,24.11
2023-03-26T01:42:28.056Z,24.11
2023-03-26T01:44:59.781Z,24.10
2023-03-26T01:47:27.742Z,24.08
2023-03-26T01:49:54.630Z,24.09
2023-03-26T01:52:26.123Z,24.08
2023-03-26T01:54:56.047Z,24.07
2023-03-26T01:57:34.018Z,24.07
2023-03-26T02:00:12.084Z,24.07
2023-03-26T02:02:55.005Z,24.07
2023-03-26T02:05:26.673Z,24.06
2023-03-26T02:08:00.062Z,24.03
2023-03-26T02:10:30.069Z,24.03
2023-03-26T02:12:58.970Z,24.02
2023-03-26T02:15:26.006Z,24.03
2023-03-26T02:17:54.068Z,24.03
2023-03-26T02:20:21.724Z,24.02
2023-03-26T02:22:48.696Z,24.01
2023-03-26T02:25:20.207Z,24.01
2023-03-26T02:27:50.882Z,23.99
2023-03-26T02:30:20.591Z,23.99
2023-03-26T02:32:52.353Z,23.99
2023-03-26T02:35:21.894Z,23.99
2023-03-26T02:37:52.123Z,23.99
2023-03-26T02:40:23.746Z,23.98
2023-03-26T02:42:52.902Z,23.97
2023-03-26T02:45:19.927Z,23.97
2023-03-26T02:48:05.549Z,23.96
2023-03-26T02:50:38.606Z,23.96
2023-03-26T02:53:29.878Z,23.97
2023-03-26T02:56:14.613Z,23.94
2023-03-26T02:58:53.998Z,23.94
2023-03-26T03:01:20.957Z,23.93
2023-03-26T03:03:52.012Z,23.94
2023-03-26T03:06:40.921Z,23.94
2023-03-26T03:09:10.976Z,23.92
2023-03-26T03:11:38.928Z,23.93
2023-03-26T03:14:07.650Z,23.94
2023-03-26T03:16:35.439Z,23.95
2023-03-26T03:19:06.514Z,23.92
2023-03-26T03:21:41.053Z,23.92
2023-03-26T03:24:09.177Z,23.92
2023-03-26T03:26:42.375Z,23.93
2023-03-26T03:29:36.785Z,23.92
2023-03-26T03:32:41.692Z,23.92
2023-03-26T03:35:09.613Z,23.92
2023-03-26T03:37:37.099Z,23.91
2023-03-26T03:40:08.244Z,23.93
2023-03-26T03:42:35.784Z,23.92
2023-03-26T03:45:06.506Z,23.91
2023-03-26T03:47:51.695Z,23.90
2023-03-26T03:50:25.177Z,23.90
2023-03-26T03:53:09.065Z,23.89
2023-03-26T03:55:38.270Z,23.87
2023-03-26T03:58:06.111Z,23.87
2023-03-26T04:00:34.323Z,23.87
2023-03-26T04:03:33.608Z,23.87
2023-03-26T04:06:07.029Z,23.88
2023-03-26T04:08:34.860Z,23.88
2023-03-26T04:11:01.830Z,23.88
2023-03-26T04:13:34.593Z,23.87
2023-03-26T04:16:21.135Z,23.88
2023-03-26T04:18:49.418Z,23.87
2023-03-26T04:21:16.283Z,23.86
2023-03-26T04:23:45.579Z,23.86
2023-03-26T04:26:32.770Z,23.84
2023-03-26T04:29:11.860Z,23.84
2023-03-26T04:31:40.381Z,23.86
2023-03-26T04:34:14.805Z,23.86
2023-03-26T04:36:54.381Z,23.87
2023-03-26T04:39:29.314Z,23.84
2023-03-26T04:42:20.397Z,23.83
2023-03-26T04:45:05.812Z,23.84
2023-03-26T04:47:37.130Z,23.82
2023-03-26T04:50:06.598Z,23.82
2023-03-26T04:52:34.484Z,23.82
2023-03-26T04:55:23.155Z,23.82
2023-03-26T04:58:00.304Z,23.82
2023-03-26T05:00:47.500Z,23.80
2023-03-26T05:03:16.564Z,23.82
2023-03-26T05:05:43.972Z,23.80
2023-03-26T05:08:10.930Z,23.82
2023-03-26T05:10:38.150Z,23.81
2023-03-26T05:13:11.458Z,23.80
2023-03-26T05:15:40.740Z,23.80
2023-03-26T05:18:21.197Z,23.86
2023-03-26T05:20:52.067Z,23.90
2023-03-26T05:23:19.180Z,23.93
2023-03-26T05:25:52.733Z,23.95
2023-03-26T05:28:25.478Z,23.97
2023-03-26T05:30:56.518Z,24.01
2023-03-26T05:33:27.233Z,24.05
2023-03-26T05:36:02.939Z,24.10
2023-03-26T05:38:31.958Z,24.14
2023-03-26T05:41:00.061Z,24.18
2023-03-26T05:43:27.120Z,24.25
2023-03-26T05:46:09.246Z,24.29
2023-03-26T05:48:38.224Z,24.35
2023-03-26T05:51:06.558Z,24.40
2023-03-26T05:53:33.798Z,24.44
2023-03-26T05:56:19.127Z,24.50
2023-03-26T05:59:06.907Z,24.54
2023-03-26T06:01:54.767Z,24.59
2023-03-26T06:04:58.013Z,24.64
2023-03-26T06:07:27.045Z,24.68
2023-03-26T06:10:18.466Z,24.72
2023-03-26T06:12:46.600Z,24.75
2023-03-26T06:15:13.613Z,24.77
2023-03-26T06:17:48.463Z,24.79
2023-03-26T06:20:41.182Z,24.83
2023-03-26T06:23:22.876Z,24.85
2023-03-26T06:26:05.693Z,24.87
2023-03-26T06:28:49.582Z,24.89
2023-03-26T06:31:45.551Z,24.91
2023-03-26T06:34:25.968Z,24.90
2023-03-26T06:36:54.783Z,24.93
2023-03-26T06:39:22.446Z,24.93
2023-03-26T06:42:12.220Z,24.95
2023-03-26T06:44:50.370Z,24.96
2023-03-26T06:47:36.169Z,24.95
2023-03-26T06:50:12.276Z,24.96
2023-03-26T06:53:00.976Z,24.97
2023-03-26T06:55:50.959Z,24.98
2023-03-26T06:58:38.065Z,25.00
2023-03-26T07:01:23.172Z,25.01
2023-03-26T07:04:08.642Z,25.01
2023-03-26T07:06:53.923Z,25.00
2023-03-26T07:09:41.131Z,25.00
2023-03-26T07:12:27.011Z,25.02
2023-03-26T07:15:20.292Z,25.02
2023-03-26T07:18:19.137Z,25.02
2023-03-26T07:20:47.418Z,25.04
2023-03-26T07:23:20.001Z,25.03
2023-03-26T07:26:22.218Z,25.04
2023-03-26T07:29:18.068Z,25.03
2023-03-26T07:32:17.194Z,25.04
2023-03-26T07:35:12.445Z,25.03
2023-03-26T07:38:27.917Z,25.04
2023-03-26T07:41:35.501Z,25.03
2023-03-26T07:44:39.420Z,25.05
2023-03-26T07:47:41.712Z,25.06
2023-03-26T07:50:18.307Z,25.04
2023-03-26T07:52:59.109Z,25.04
2023-03-26T07:55:52.501Z,25.06
2023-03-26T07:59:06.716Z,25.07
2023-03-26T08:02:14.491Z,25.08
2023-03-26T08:05:19.686Z,25.12
2023-03-26T08:08:17.406Z,25.11
2023-03-26T08:11:10.596Z,25.17
2023-03-26T08:13:58.299Z,25.19
2023-03-26T08:16:34.087Z,25.20
2023-03-26T08:19:08.386Z,25.18
2023-03-26T08:21:42.376Z,25.21
2023-03-26T08:24:17.021Z,25.21
2023-03-26T08:26:51.919Z,25.20
2023-03-26T08:29:29.389Z,25.22
2023-03-26T08:31:57.977Z,25.22
2023-03-26T08:34:24.744Z,25.24
2023-03-26T08:36:51.711Z,25.23
2023-03-26T08:39:19.856Z,25.23
2023-03-26T08:42:19.325Z,25.23
2023-03-26T08:45:15.527Z,25.22
2023-03-26T08:48:21.121Z,25.23
2023-03-26T08:51:27.888Z,25.22
2023-03-26T08:54:39.035Z,25.22
2023-03-26T08:57:38.522Z,25.20
2023-03-26T09:00:31.881Z,25.18
2023-03-26T09:03:31.004Z,25.18
2023-03-26T09:06:25.451Z,25.19
2023-03-26T09:09:20.550Z,25.19
2023-03-26T09:12:11.535Z,25.17
2023-03-26T09:15:14.067Z,25.18
2023-03-26T09:18:16.993Z,25.15
2023-03-26T09:21:34.316Z,25.14
2023-03-26T09:24:35.517Z,25.14
2023-03-26T09:27:27.552Z,25.13
2023-03-26T09:30:30.701Z,25.12
2023-03-26T09:33:19.279Z,25.11
2023-03-26T09:35:53.688Z,25.09
2023-03-26T09:38:43.728Z,25.09
2023-03-26T09:41:17.792Z,25.10
2023-03-26T09:43:59.348Z,25.12
2023-03-26T09:46:34.521Z,25.09
2023-03-26T09:49:17.415Z,25.09
2023-03-26T09:52:03.324Z,25.06
2023-03-26T09:54:54.958Z,25.07
2023-03-26T09:57:53.920Z,25.07
2023-03-26T10:00:29.152Z,25.04
2023-03-26T10:03:15.665Z,25.05
2023-03-26T10:05:54.834Z,25.05
2023-03-26T10:08:49.149Z,25.04
2023-03-26T10:11:24.000Z,25.05
2023-03-26T10:14:17.763Z,25.06
2023-03-26T10:16:55.687Z,25.03
2023-03-26T10:19:35.379Z,24.92
2023-03-26T10:22:16.057Z,24.71
2023-03-26T10:25:00.450Z,24.56
2023-03-26T10:27:41.283Z,24.46
2023-03-26T10:30:37.835Z,24.38
2023-03-26T10:33:17.597Z,24.28
2023-03-26T10:35:59.876Z,24.22
2023-03-26T10:38:40.688Z,24.14
2023-03-26T10:41:16.892Z,24.03
2023-03-26T10:44:07.872Z,24.00
2023-03-26T10:47:08.157Z,23.93
2023-03-26T10:50:02.944Z,23.89
2023-03-26T10:52:34.734Z,23.88
2023-03-26T10:55:12.112Z,23.82
2023-03-26T10:57:43.660Z,23.79
2023-03-26T11:00:17.774Z,23.84
2023-03-26T11:02:58.983Z,23.82
2023-03-26T11:05:46.365Z,23.77
2023-03-26T11:08:21.397Z,23.77
2023-03-26T11:11:05.863Z,23.74
2023-03-26T11:13:46.113Z,23.65
2023-03-26T11:16:19.677Z,23.50
2023-03-26T11:18:58.056Z,23.47
2023-03-26T11:24:17.270Z,23.58
2023-03-26T11:26:52.880Z,23.54
2023-03-26T11:29:33.588Z,23.56
2023-03-26T11:32:06.186Z,23.57
2023-03-26T11:34:38.767Z,23.57
2023-03-26T11:37:15.177Z,23.57
2023-03-26T11:39:49.595Z,23.62
2023-03-26T11:42:19.384Z,23.64
2023-03-26T11:44:51.340Z,23.66
2023-03-26T11:47:23.482Z,23.71
2023-03-26T11:49:53.358Z,23.73
2023-03-26T11:52:20.616Z,23.72
2023-03-26T11:54:50.492Z,23.62
2023-03-26T11:57:22.450Z,23.61
2023-03-26T11:59:57.544Z,23.54
2023-03-26T12:02:29.435Z,23.57
2023-03-26T12:05:13.619Z,23.60
2023-03-26T12:07:46.872Z,23.61
2023-03-26T12:10:31.406Z,23.63
2023-03-26T12:13:01.303Z,23.64
2023-03-26T12:15:31.486Z,23.65
2023-03-26T12:18:17.603Z,23.65
2023-03-26T12:20:45.903Z,23.58
2023-03-26T12:23:35.527Z,23.50
2023-03-26T12:26:14.366Z,23.48
2023-03-26T12:28:45.672Z,23.47
2023-03-26T12:31:19.146Z,23.37
2023-03-26T12:34:03.031Z,23.28
2023-03-26T12:36:35.920Z,23.33
2023-03-26T12:40:06.919Z,23.38
2023-03-26T12:42:26.710Z,23.43
2023-03-26T12:45:14.470Z,23.43
2023-03-26T12:47:58.313Z,23.44
2023-03-26T12:50:35.567Z,23.47
2023-03-26T12:53:27.581Z,23.48
2023-03-26T12:56:01.649Z,23.48
2023-03-26T12:58:44.053Z,23.48
2023-03-26T13:01:22.828Z,23.47
2023-03-26T13:04:08.383Z,23.48
2023-03-26T13:06:59.872Z,23.48
2023-03-26T13:09:43.378Z,23.48
2023-03-26T13:12:25.773Z,23.48
2023-03-26T13:15:13.710Z,23.48
2023-03-26T13:17:50.985Z,23.48
2023-03-26T13:20:27.241Z,23.47
2023-03-26T13:23:02.828Z,23.47
2023-03-26T13:25:40.772Z,23.47
2023-03-26T13:28:21.567Z,23.44
2023-03-26T13:30:57.213Z,23.44
2023-03-26T13:33:35.900Z,23.41
2023-03-26T13:36:22.452Z,23.41
2023-03-26T13:39:04.911Z,23.41
2023-03-26T13:41:47.333Z,23.42
2023-03-26T13:44:24.111Z,23.42
2023-03-26T13:46:55.228Z,23.41
2023-03-26T13:49:29.342Z,23.40
2023-03-26T13:52:01.858Z,23.39
2023-03-26T13:54:32.554Z,23.39
2023-03-26T13:57:07.892Z,23.35
2023-03-26T13:59:40.309Z,23.32
2023-03-26T14:02:12.134Z,23.36
2023-03-26T14:04:43.905Z,23.47
2023-03-26T14:07:18.108Z,23.56
2023-03-26T14:09:51.318Z,23.63
2023-03-26T14:12:38.559Z,23.71
2023-03-26T14:15:06.937Z,23.75
2023-03-26T14:17:39.906Z,23.79
2023-03-26T14:20:58.702Z,23.84
2023-03-26T14:23:58.626Z,23.88
2023-03-26T14:26:51.929Z,23.94
2023-03-26T14:29:30.507Z,24.00
2023-03-26T14:32:24.492Z,24.04
2023-03-26T14:35:14.026Z,24.08
2023-03-26T14:38:08.033Z,24.12
2023-03-26T14:40:57.266Z,24.16
2023-03-26T14:43:56.690Z,24.18
2023-03-26T14:46:40.915Z,24.20
2023-03-26T14:49:47.218Z,24.24
2023-03-26T14:52:20.389Z,24.27
2023-03-26T14:54:53.321Z,24.29
2023-03-26T14:57:58.454Z,24.32
2023-03-26T15:01:04.251Z,24.33
2023-03-26T15:04:05.100Z,24.35
2023-03-26T15:07:07.827Z,24.36
2023-03-26T15:10:05.988Z,24.38
2023-03-26T15:12:48.501Z,24.39
2023-03-26T15:16:00.562Z,24.42
2023-03-26T15:19:00.265Z,24.40
2023-03-26T15:22:00.991Z,24.41
2023-03-26T15:24:52.868Z,24.41
2023-03-26T15:27:50.299Z,24.42
2023-03-26T15:30:47.697Z,24.43
2023-03-26T15:33:54.226Z,24.43
2023-03-26T15:37:12.903Z,24.42
2023-03-26T15:40:27.567Z,24.40
2023-03-26T15:43:06.733Z,24.41
2023-03-26T15:45:38.518Z,24.42
2023-03-26T15:48:39.114Z,24.43
2023-03-26T15:51:32.113Z,24.46
2023-03-26T15:54:23.215Z,24.44
2023-03-26T15:57:12.409Z,24.48
2023-03-26T15:59:52.725Z,24.51
2023-03-26T16:02:28.498Z,24.54
2023-03-26T16:05:03.237Z,24.55
2023-03-26T16:07:41.920Z,24.54
2023-03-26T16:10:28.313Z,24.56
2023-03-26T16:13:26.682Z,24.56
2023-03-26T16:15:58.028Z,24.56
2023-03-26T16:18:34.500Z,24.56
2023-03-26T16:21:47.114Z,24.55
2023-03-26T16:24:24.421Z,24.55
2023-03-26T16:27:30.024Z,24.54
2023-03-26T16:30:28.998Z,24.54
2023-03-26T16:33:09.048Z,24.56
2023-03-26T16:35:42.234Z,24.57
2023-03-26T16:38:14.823Z,24.59
2023-03-26T16:41:00.226Z,24.60
2023-03-26T16:43:47.681Z,24.60
2023-03-26T16:46:38.483Z,24.60
2023-03-26T16:49:16.667Z,24.59
2023-03-26T16:51:58.158Z,24.60
2023-03-26T16:54:28.133Z,24.60
2023-03-26T16:57:02.104Z,24.58
2023-03-26T17:00:05.420Z,24.60
2023-03-26T17:02:43.725Z,24.62
2023-03-26T17:05:20.022Z,24.64
2023-03-26T17:08:01.297Z,24.65
2023-03-26T17:10:36.004Z,24.67
2023-03-26T17:13:07.568Z,24.67
2023-03-26T17:15:43.516Z,24.66
2023-03-26T17:18:43.457Z,24.64
2023-03-26T17:21:18.339Z,24.62
2023-03-26T17:24:04.029Z,24.62
2023-03-26T17:26:48.434Z,24.61
2023-03-26T17:29:28.632Z,24.61
2023-03-26T17:32:04.630Z,24.62
2023-03-26T17:34:46.544Z,24.63
2023-03-26T17:37:44.836Z,24.61
2023-03-26T17:40:49.551Z,24.62
2023-03-26T17:43:42.591Z,24.61
2023-03-26T17:46:21.104Z,24.60
2023-03-26T17:48:56.959Z,24.61
2023-03-26T17:51:38.441Z,24.61
2023-03-26T17:54:08.256Z,24.63
2023-03-26T17:56:37.827Z,24.61
2023-03-26T17:59:11.507Z,24.61
2023-03-26T18:01:42.229Z,24.60
2023-03-26T18:04:18.729Z,24.62
2023-03-26T18:07:04.097Z,24.62
2023-03-26T18:09:46.912Z,24.63
2023-03-26T18:12:48.380Z,24.62
2023-03-26T18:15:30.702Z,24.60
2023-03-26T18:18:09.621Z,24.60
2023-03-26T18:20:37.825Z,24.60
2023-03-26T18:23:10.762Z,24.59
2023-03-26T18:25:40.983Z,24.58
2023-03-26T18:28:12.163Z,24.59
2023-03-26T18:30:48.839Z,24.60
2023-03-26T18:33:15.890Z,24.61
2023-03-26T18:35:45.054Z,24.62
2023-03-26T18:38:16.972Z,24.62
2023-03-26T18:40:46.337Z,24.63
2023-03-26T18:43:25.413Z,24.63
2023-03-26T18:45:59.479Z,24.63
2023-03-26T18:48:28.739Z,24.63
2023-03-26T18:50:59.877Z,24.63
2023-03-26T18:53:37.583Z,24.65
2023-03-26T18:56:19.127Z,24.65
2023-03-26T18:58:50.464Z,24.66
2023-03-26T19:01:25.533Z,24.63
2023-03-26T19:03:54.660Z,24.62
2023-03-26T19:06:23.339Z,24.64
2023-03-26T19:08:51.145Z,24.65
2023-03-26T19:11:19.495Z,24.65
2023-03-26T19:13:58.236Z,24.65
2023-03-26T19:16:28.167Z,24.67
2023-03-26T19:18:58.452Z,24.66
2023-03-26T19:21:25.508Z,24.66
2023-03-26T19:23:53.292Z,24.67
2023-03-26T19:26:22.242Z,24.65
2023-03-26T19:28:53.271Z,24.66
2023-03-26T19:31:24.476Z,24.67
2023-03-26T19:33:57.159Z,24.66
2023-03-26T19:36:29.605Z,24.65
2023-03-26T19:39:10.212Z,24.64
2023-03-26T19:41:41.068Z,24.64
2023-03-26T19:44:19.289Z,24.63
2023-03-26T19:46:52.973Z,24.60
2023-03-26T19:49:29.693Z,24.58
2023-03-26T19:52:05.324Z,24.56
2023-03-26T19:54:32.187Z,24.53
2023-03-26T19:57:00.995Z,24.50
2023-03-26T19:59:27.826Z,24.51
2023-03-26T20:01:54.649Z,24.50
2023-03-26T20:04:21.512Z,24.48
2023-03-26T20:06:49.905Z,24.47
2023-03-26T20:09:16.825Z,24.48
2023-03-26T20:11:43.721Z,24.46
2023-03-26T20:14:14.594Z,24.44
2023-03-26T20:16:43.842Z,24.43
2023-03-26T20:19:14.075Z,24.43
2023-03-26T20:21:41.582Z,24.41
2023-03-26T20:24:11.850Z,24.42
2023-03-26T20:26:38.673Z,24.41
2023-03-26T20:29:06.085Z,24.42
2023-03-26T20:31:34.594Z,24.39
2023-03-26T20:34:01.482Z,24.41
2023-03-26T20:36:33.626Z,24.41
2023-03-26T20:39:05.636Z,24.41
2023-03-26T20:41:34.078Z,24.40
2023-03-26T20:44:03.597Z,24.39
2023-03-26T20:46:31.872Z,24.38
2023-03-26T20:49:00.310Z,24.36
2023-03-26T20:51:28.556Z,24.33
2023-03-26T20:53:56.582Z,24.32
2023-03-26T20:56:23.477Z,24.29
2023-03-26T20:59:03.674Z,24.25
2023-03-26T21:01:35.084Z,24.22
2023-03-26T21:04:04.469Z,24.18
2023-03-26T21:06:31.815Z,24.20
2023-03-26T21:08:59.169Z,24.18
2023-03-26T21:11:34.460Z,24.13
2023-03-26T21:14:06.735Z,24.06
2023-03-26T21:16:34.466Z,24.08
2023-03-26T21:19:03.399Z,24.08
2023-03-26T21:21:46.420Z,24.09
2023-03-26T21:24:24.769Z,24.08
2023-03-26T21:26:59.208Z,24.01
2023-03-26T21:29:27.389Z,23.97
2023-03-26T21:31:55.366Z,23.95
2023-03-26T21:34:24.318Z,23.96
2023-03-26T21:36:51.820Z,23.94
2023-03-26T21:39:19.178Z,23.92
2023-03-26T21:41:48.970Z,23.89
2023-03-26T21:44:33.099Z,23.87
2023-03-26T21:47:00.713Z,23.87
2023-03-26T21:49:29.813Z,23.85
2023-03-26T21:51:57.200Z,23.85
2023-03-26T21:54:26.577Z,23.84
2023-03-26T21:57:06.691Z,23.84
2023-03-26T21:59:42.716Z,23.80
2023-03-26T22:02:19.585Z,23.83
2023-03-26T22:04:52.287Z,23.86
2023-03-26T22:07:23.122Z,23.87
2023-03-26T22:09:50.418Z,23.84
2023-03-26T22:12:17.733Z,23.83
2023-03-26T22:14:44.931Z,23.87
2023-03-26T22:17:11.720Z,23.96
2023-03-26T22:19:38.593Z,24.03
2023-03-26T22:22:06.781Z,24.07
2023-03-26T22:24:34.369Z,24.11
2023-03-26T22:27:01.274Z,24.13
2023-03-26T22:29:28.135Z,24.19
2023-03-26T22:31:54.978Z,24.22
2023-03-26T22:34:23.173Z,24.24
2023-03-26T22:36:50.008Z,24.26
2023-03-26T22:39:18.302Z,24.30
2023-03-26T22:41:45.213Z,24.31
2023-03-26T22:44:19.618Z,24.35
2023-03-26T22:46:49.144Z,24.35
2023-03-26T22:49:16.550Z,24.36
2023-03-26T22:51:43.652Z,24.36
2023-03-26T22:54:10.712Z,24.35
2023-03-26T22:56:39.058Z,24.30
2023-03-26T22:59:06.585Z,24.32
2023-03-26T23:01:34.457Z,24.33
2023-03-26T23:04:01.549Z,24.33
2023-03-26T23:06:28.760Z,24.32
2023-03-26T23:08:57.085Z,24.31
2023-03-26T23:11:24.119Z,24.30
2023-03-26T23:13:52.596Z,24.31
2023-03-26T23:16:21.591Z,24.29
2023-03-26T23:18:48.716Z,24.29
2023-03-26T23:21:18.534Z,24.27
2023-03-26T23:23:46.222Z,24.26
2023-03-26T23:26:14.488Z,24.26
2023-03-26T23:28:41.411Z,24.23
2023-03-26T23:31:12.088Z,24.24
2023-03-26T23:33:45.667Z,24.22
2023-03-26T23:36:13.878Z,24.21
2023-03-26T23:38:44.214Z,24.21
2023-03-26T23:41:14.982Z,24.20
2023-03-26T23:43:53.919Z,24.20
2023-03-26T23:46:24.745Z,24.19
2023-03-26T23:48:52.248Z,24.18
2023-03-26T23:51:24.085Z,24.19
2023-03-26T23:53:51.284Z,24.16
2023-03-26T23:56:18.073Z,24.14
2023-03-26T23:58:45.129Z,24.11
